Impacts TAF Board
For situational awareness. Not to be used for flight planning purposes.
IDs:

KPOE - Fort Polk(AAF), LA, US

Issued at 2300 UTC 02 Oct 2022
Updated at 2344 UTC 02 Oct 2022
Potential Impact None Slight Moderate High
Time2255Z 03/00Z 03/01Z 03/02Z 03/03Z 03/04Z 03/05Z 03/06Z 03/07Z 03/08Z 03/09Z 03/10Z 03/11Z 03/12Z>>
Type OBS PRVL PRVL PRVL PRVL PRVL PRVL PRVL PRVL PRVL PRVL PRVL PRVL PRVL
VIS 8 >6 >6 >6 >6 >6 >6 >6 >6 >6 >6 >6 >6 >6
CIG -- -- -- -- -- -- -- -- -- -- -- -- -- --
Cover CLR SKC SKC SKC SKC SKC SKC SKC SKC SKC SKC SKC SKC SKC
FltCat VFR VFR VFR VFR VFR VFR VFR VFR VFR VFR VFR VFR VFR VFR
WX -- -- -- -- -- -- -- -- -- -- -- -- -- --
WDir 40 VRB VRB VRB VRB VRB VRB VRB VRB VRB VRB VRB VRB VRB
WSpd 5 6 6 6 6 6 6 6 6 6 6 6 6 6
WGst -- -- -- -- -- -- -- -- -- -- -- -- -- --
WSHgt -- -- -- -- -- -- -- -- -- -- -- -- -- --
WSDir -- -- -- -- -- -- -- -- -- -- -- -- -- --
WSSpd -- -- -- -- -- -- -- -- -- -- -- -- -- --
R16/34
XWnd 4 VRB VRB VRB VRB VRB VRB VRB VRB VRB VRB VRB VRB VRB
HWnd -3 VRB VRB VRB VRB VRB VRB VRB VRB VRB VRB VRB VRB VRB
Raw TAF
TAF KPOE 022300Z 0223/0405 VRB06KT 9999 SKC QNH3007INS
  BECMG 0313/0314 02009KT 9999 SKC QNH3017INS
  BECMG 0317/0318 03012KT 9999 SKC QNH3015INS
  BECMG 0322/0323 VRB06KT 9999 SKC QNH3008INS TX28/0321Z TN12/0312Z LAST NO AMDS AFT 0305 NEXT 0315


Raw METAR
KPOE 022255Z AUTO 04005KT 8SM CLR 27/06 A3007 RMK AO2 SLP183 T02720060
KPOE 022155Z AUTO 07008KT 8SM CLR 28/06 A3006 RMK AO2 SLP180 T02830064
KPOE 022055Z AUTO 01008KT 8SM CLR 29/07 A3006 RMK AO2 SLP179 T02870073 57020

METAR Board
Radar Display
Forecast Discussion
For situational awareness. Not to be used for flight planning purposes.